createdAt,value
2023-05-19T00:00:59.415Z,2.10
2023-05-19T00:03:27.798Z,2.08
2023-05-19T00:05:54.847Z,2.00
2023-05-19T00:08:23.600Z,2.13
2023-05-19T00:10:51.297Z,1.88
2023-05-19T00:13:18.175Z,1.90
2023-05-19T00:15:45.162Z,2.10
2023-05-19T00:18:12.034Z,1.83
2023-05-19T00:20:38.819Z,1.77
2023-05-19T00:23:05.454Z,2.00
2023-05-19T00:25:32.249Z,2.03
2023-05-19T00:28:00.334Z,2.22
2023-05-19T00:30:29.637Z,1.83
2023-05-19T00:32:57.070Z,2.20
2023-05-19T00:35:24.557Z,1.90
2023-05-19T00:37:51.227Z,2.10
2023-05-19T00:40:22.456Z,2.08
2023-05-19T00:42:49.097Z,2.05
2023-05-19T00:45:15.920Z,1.97
2023-05-19T00:47:42.734Z,2.10
2023-05-19T00:50:10.176Z,2.13
2023-05-19T00:52:38.378Z,2.30
2023-05-19T00:55:08.291Z,1.90
2023-05-19T00:57:35.070Z,2.40
2023-05-19T01:00:01.849Z,2.75
2023-05-19T01:02:29.147Z,2.10
2023-05-19T01:04:57.557Z,2.00
2023-05-19T01:07:24.292Z,2.33
2023-05-19T01:09:52.307Z,2.33
2023-05-19T01:12:19.258Z,2.00
2023-05-19T01:14:47.459Z,2.38
2023-05-19T01:17:22.324Z,2.75
2023-05-19T01:20:08.455Z,2.60
2023-05-19T01:23:02.831Z,2.37
2023-05-19T01:26:07.428Z,3.08
2023-05-19T01:29:02.561Z,2.00
2023-05-19T01:31:29.829Z,2.25
2023-05-19T01:33:58.446Z,2.40
2023-05-19T01:36:30.140Z,2.40
2023-05-19T01:38:59.178Z,2.47
2023-05-19T01:41:26.824Z,2.50
2023-05-19T01:43:54.035Z,2.53
2023-05-19T01:46:21.501Z,2.47
2023-05-19T01:48:48.658Z,2.50
2023-05-19T01:51:15.417Z,2.35
2023-05-19T01:53:42.221Z,2.17
2023-05-19T01:56:09.146Z,2.10
2023-05-19T01:58:46.379Z,2.40
2023-05-19T02:01:34.213Z,2.40
2023-05-19T02:04:16.420Z,2.47
2023-05-19T02:07:03.981Z,2.63
2023-05-19T02:10:05.386Z,2.45
2023-05-19T02:12:36.291Z,2.40
2023-05-19T02:15:15.660Z,2.67
2023-05-19T02:17:47.074Z,2.58
2023-05-19T02:20:15.632Z,2.25
2023-05-19T02:22:42.872Z,2.50
2023-05-19T02:25:11.666Z,2.80
2023-05-19T02:27:41.698Z,2.40
2023-05-19T02:30:11.590Z,2.63
2023-05-19T02:32:38.493Z,2.67
2023-05-19T02:35:05.860Z,2.60
2023-05-19T02:37:32.992Z,2.50
2023-05-19T02:39:59.895Z,2.33
2023-05-19T02:42:26.579Z,2.80
2023-05-19T02:44:54.771Z,2.60
2023-05-19T02:47:24.461Z,2.70
2023-05-19T02:49:51.185Z,2.85
2023-05-19T02:52:17.819Z,2.23
2023-05-19T02:54:44.804Z,2.13
2023-05-19T02:57:11.612Z,2.70
2023-05-19T02:59:38.599Z,2.15
2023-05-19T03:02:05.702Z,2.53
2023-05-19T03:04:32.774Z,2.60
2023-05-19T03:06:59.659Z,2.70
2023-05-19T03:09:26.406Z,2.90
2023-05-19T03:11:53.153Z,2.53
2023-05-19T03:14:19.830Z,2.50
2023-05-19T03:16:50.838Z,2.47
2023-05-19T03:19:17.927Z,2.63
2023-05-19T03:21:44.593Z,3.00
2023-05-19T03:24:11.239Z,2.95
2023-05-19T03:26:37.975Z,2.90
2023-05-19T03:29:04.743Z,3.20
2023-05-19T03:31:31.537Z,2.90
2023-05-19T03:33:58.362Z,2.65
2023-05-19T03:36:25.245Z,2.50
2023-05-19T03:38:52.099Z,3.08
2023-05-19T03:41:19.054Z,2.57
2023-05-19T03:43:47.905Z,2.63
2023-05-19T03:46:14.617Z,2.58
2023-05-19T03:48:41.333Z,2.40
2023-05-19T03:51:08.320Z,2.60
2023-05-19T03:53:36.785Z,2.67
2023-05-19T03:56:03.661Z,2.45
2023-05-19T03:58:30.446Z,2.70
2023-05-19T04:00:57.523Z,2.30
2023-05-19T04:03:24.620Z,2.58
2023-05-19T04:05:51.782Z,2.50
2023-05-19T04:08:18.548Z,2.83
2023-05-19T04:10:45.457Z,2.38
2023-05-19T04:13:13.189Z,2.70
2023-05-19T04:15:40.009Z,2.40
2023-05-19T04:18:07.221Z,2.73
2023-05-19T04:20:34.320Z,2.63
2023-05-19T04:23:02.257Z,2.10
2023-05-19T04:25:29.091Z,2.35
2023-05-19T04:27:55.815Z,2.55
2023-05-19T04:30:22.832Z,2.70
2023-05-19T04:32:49.703Z,2.60
2023-05-19T04:35:16.774Z,2.28
2023-05-19T04:37:44.866Z,2.40
2023-05-19T04:40:13.190Z,2.30
2023-05-19T04:42:39.899Z,2.50
2023-05-19T04:45:07.635Z,2.35
2023-05-19T04:47:37.473Z,2.10
2023-05-19T04:50:07.667Z,2.30
2023-05-19T04:52:34.366Z,2.20
2023-05-19T04:55:04.339Z,2.73
2023-05-19T04:57:36.933Z,2.50
2023-05-19T05:00:05.479Z,2.20
2023-05-19T05:02:32.239Z,2.10
2023-05-19T05:04:58.955Z,2.40
2023-05-19T05:07:26.227Z,2.07
2023-05-19T05:09:52.985Z,2.05
2023-05-19T05:12:20.227Z,2.20
2023-05-19T05:14:47.458Z,2.25
2023-05-19T05:17:14.525Z,2.40
2023-05-19T05:19:41.756Z,2.03
2023-05-19T05:22:11.979Z,2.50
2023-05-19T05:24:38.939Z,2.40
2023-05-19T05:27:06.130Z,2.05
2023-05-19T05:29:36.901Z,2.30
2023-05-19T05:32:05.822Z,2.23
2023-05-19T05:34:32.764Z,2.00
2023-05-19T05:36:59.731Z,2.15
2023-05-19T05:39:33.576Z,2.20
2023-05-19T05:42:03.679Z,2.58
2023-05-19T05:44:31.428Z,2.20
2023-05-19T05:46:58.471Z,2.20
2023-05-19T05:49:25.576Z,2.15
2023-05-19T05:52:05.146Z,2.17
2023-05-19T05:54:33.833Z,2.08
2023-05-19T05:57:01.316Z,1.87
2023-05-19T05:59:31.846Z,2.45
2023-05-19T06:01:59.216Z,2.38
2023-05-19T06:04:26.226Z,2.30
2023-05-19T06:06:52.954Z,2.20
2023-05-19T06:09:20.820Z,2.53
2023-05-19T06:11:47.906Z,2.70
2023-05-19T06:14:15.146Z,2.58
2023-05-19T06:16:42.086Z,2.30
2023-05-19T06:19:11.847Z,2.15
2023-05-19T06:21:38.808Z,2.07
2023-05-19T06:24:08.082Z,2.50
2023-05-19T06:29:31.547Z,2.40
2023-05-19T06:32:05.598Z,2.20
2023-05-19T06:37:24.676Z,2.40
2023-05-19T06:40:04.998Z,2.33
2023-05-19T06:42:34.816Z,2.40
2023-05-19T06:45:01.784Z,2.58
2023-05-19T06:47:33.310Z,2.47
2023-05-19T06:50:00.024Z,2.58
2023-05-19T06:52:29.401Z,2.35
2023-05-19T06:54:56.063Z,2.53
2023-05-19T06:57:22.964Z,2.42
2023-05-19T06:59:50.067Z,2.87
2023-05-19T07:02:17.208Z,2.30
2023-05-19T07:04:47.104Z,2.58
2023-05-19T07:07:13.964Z,2.50
2023-05-19T07:09:40.685Z,2.50
2023-05-19T07:12:07.681Z,2.30
2023-05-19T07:14:34.707Z,2.42
2023-05-19T07:17:01.445Z,2.70
2023-05-19T07:19:28.266Z,2.60
2023-05-19T07:21:55.583Z,2.45
2023-05-19T07:24:24.482Z,2.30
2023-05-19T07:26:51.201Z,2.63
2023-05-19T07:29:20.782Z,2.28
2023-05-19T07:31:48.341Z,2.03
2023-05-19T07:34:15.076Z,3.28
2023-05-19T07:36:41.813Z,2.50
2023-05-19T07:39:08.814Z,2.60
2023-05-19T07:41:39.241Z,2.22
2023-05-19T07:44:08.180Z,2.20
2023-05-19T07:46:35.414Z,2.60
2023-05-19T07:49:13.135Z,2.30
2023-05-19T07:51:40.000Z,3.20
2023-05-19T07:54:06.753Z,2.40
2023-05-19T07:56:47.909Z,2.47
2023-05-19T07:59:16.874Z,2.80
2023-05-19T08:01:45.867Z,2.93
2023-05-19T08:04:13.270Z,3.13
2023-05-19T08:06:44.085Z,2.60
2023-05-19T08:12:26.250Z,2.90
2023-05-19T08:14:53.196Z,2.67
2023-05-19T08:17:49.602Z,2.85
2023-05-19T08:20:16.449Z,2.70
2023-05-19T08:23:03.898Z,2.67
2023-05-19T08:25:30.806Z,2.70
2023-05-19T08:27:57.952Z,3.00
2023-05-19T08:30:29.077Z,2.90
2023-05-19T08:32:55.972Z,3.08
2023-05-19T08:35:22.807Z,2.95
2023-05-19T08:37:49.438Z,2.80
2023-05-19T08:40:22.229Z,2.73
2023-05-19T08:42:51.948Z,3.30
2023-05-19T08:45:18.682Z,2.90
2023-05-19T08:47:46.863Z,2.97
2023-05-19T08:50:48.968Z,3.00
2023-05-19T08:53:34.255Z,2.90
2023-05-19T08:56:34.393Z,2.97
2023-05-19T08:59:16.637Z,2.97
2023-05-19T09:01:54.564Z,3.38
2023-05-19T09:04:47.547Z,3.35
2023-05-19T09:07:18.959Z,2.93
2023-05-19T09:13:03.838Z,3.75
2023-05-19T09:15:31.844Z,4.03
2023-05-19T09:18:12.544Z,3.50
2023-05-19T09:21:09.284Z,3.27
2023-05-19T09:23:41.928Z,3.60
2023-05-19T09:26:09.656Z,3.50
2023-05-19T09:28:37.401Z,3.63
2023-05-19T09:31:11.181Z,3.67
2023-05-19T09:34:09.505Z,3.93
2023-05-19T09:36:43.993Z,3.67
2023-05-19T09:39:42.045Z,4.03
2023-05-19T09:45:12.304Z,4.03
2023-05-19T09:47:54.829Z,3.57
2023-05-19T09:50:27.628Z,4.05
2023-05-19T09:52:58.449Z,3.72
2023-05-19T09:55:35.456Z,4.18
2023-05-19T09:58:06.706Z,4.22
2023-05-19T10:00:34.473Z,4.23
2023-05-19T10:03:16.147Z,3.90
2023-05-19T10:05:50.714Z,3.80
2023-05-19T10:08:17.856Z,3.85
2023-05-19T10:10:48.669Z,3.72
2023-05-19T10:13:16.671Z,4.20
2023-05-19T10:15:58.245Z,4.00
2023-05-19T10:18:27.338Z,3.85
2023-05-19T10:20:55.714Z,4.13
2023-05-19T10:23:22.781Z,4.05
2023-05-19T10:25:51.493Z,3.87
2023-05-19T10:28:22.866Z,4.57
2023-05-19T10:30:52.135Z,4.00
2023-05-19T10:33:21.908Z,4.00
2023-05-19T10:35:51.264Z,4.20
2023-05-19T10:38:32.942Z,4.10
2023-05-19T10:41:23.908Z,4.30
2023-05-19T10:44:13.893Z,4.28
2023-05-19T10:46:47.008Z,4.10
2023-05-19T10:49:25.895Z,4.10
2023-05-19T10:51:56.099Z,3.80
2023-05-19T10:54:46.689Z,3.90
2023-05-19T10:57:17.812Z,3.90
2023-05-19T10:59:44.909Z,4.03
2023-05-19T11:02:37.360Z,4.00
2023-05-19T11:05:15.304Z,4.03
2023-05-19T11:07:43.098Z,3.78
2023-05-19T11:10:10.857Z,4.20
2023-05-19T11:12:42.547Z,4.10
2023-05-19T11:15:16.317Z,4.32
2023-05-19T11:17:50.250Z,4.43
2023-05-19T11:20:32.607Z,4.70
2023-05-19T11:23:18.186Z,4.43
2023-05-19T11:25:51.765Z,4.47
2023-05-19T11:28:22.272Z,3.85
2023-05-19T11:30:49.474Z,4.10
2023-05-19T11:33:16.486Z,3.97
2023-05-19T11:35:47.400Z,4.45
2023-05-19T11:38:24.940Z,3.90
2023-05-19T11:40:55.483Z,4.10
2023-05-19T11:43:36.084Z,4.37
2023-05-19T11:46:10.665Z,4.20
2023-05-19T11:48:37.926Z,3.67
2023-05-19T11:51:07.931Z,4.70
2023-05-19T11:53:42.389Z,4.30
2023-05-19T11:56:12.678Z,4.33
2023-05-19T11:58:42.717Z,4.38
2023-05-19T12:01:09.910Z,4.10
2023-05-19T12:03:37.209Z,4.38
2023-05-19T12:06:10.577Z,4.47
2023-05-19T12:08:37.361Z,4.10
2023-05-19T12:11:05.128Z,4.15
2023-05-19T12:13:31.886Z,4.03
2023-05-19T12:16:03.598Z,4.15
2023-05-19T12:18:36.750Z,4.20
2023-05-19T12:21:04.572Z,4.23
2023-05-19T12:23:35.344Z,4.53
2023-05-19T12:26:05.068Z,3.95
2023-05-19T12:28:31.914Z,5.65
2023-05-19T12:30:59.045Z,4.50
2023-05-19T12:33:26.017Z,4.53
2023-05-19T12:35:55.112Z,4.45
2023-05-19T12:38:22.844Z,4.43
2023-05-19T12:40:50.274Z,4.53
2023-05-19T12:43:23.555Z,4.32
2023-05-19T12:45:50.328Z,4.57
2023-05-19T12:48:17.420Z,4.57
2023-05-19T12:50:54.888Z,4.72
2023-05-19T12:53:26.602Z,4.38
2023-05-19T12:55:53.513Z,4.35
2023-05-19T12:58:21.191Z,4.27
2023-05-19T13:00:54.814Z,4.28
2023-05-19T13:03:21.886Z,4.65
2023-05-19T13:05:50.166Z,5.03
2023-05-19T13:08:24.267Z,4.95
2023-05-19T13:10:53.648Z,4.27
2023-05-19T13:13:20.361Z,5.13
2023-05-19T13:15:50.477Z,5.32
2023-05-19T13:18:17.996Z,4.78
2023-05-19T13:20:45.867Z,4.18
2023-05-19T13:23:13.512Z,4.60
2023-05-19T13:25:41.327Z,4.65
2023-05-19T13:28:12.819Z,4.68
2023-05-19T13:30:40.916Z,4.53
2023-05-19T13:33:07.944Z,4.32
2023-05-19T13:35:35.360Z,4.10
2023-05-19T13:38:09.139Z,4.50
2023-05-19T13:40:35.896Z,4.78
2023-05-19T13:43:03.978Z,4.50
2023-05-19T13:45:35.323Z,4.50
2023-05-19T13:48:02.229Z,4.17
2023-05-19T13:50:31.681Z,4.32
2023-05-19T13:52:58.462Z,4.50
2023-05-19T13:55:25.951Z,4.28
2023-05-19T13:57:54.315Z,4.03
2023-05-19T14:00:25.780Z,4.67
2023-05-19T14:02:53.705Z,4.50
2023-05-19T14:05:20.475Z,4.38
2023-05-19T14:07:47.133Z,4.30
2023-05-19T14:10:15.632Z,4.55
2023-05-19T14:13:07.853Z,4.70
2023-05-19T14:15:29.134Z,4.80
2023-05-19T14:17:55.891Z,4.90
2023-05-19T14:20:27.859Z,4.60
2023-05-19T14:22:55.903Z,4.95
2023-05-19T14:25:22.812Z,5.80
2023-05-19T14:27:49.615Z,6.53
2023-05-19T14:30:16.372Z,6.45
2023-05-19T14:32:43.240Z,8.40
2023-05-19T14:35:10.528Z,7.85
2023-05-19T14:37:37.269Z,7.53
2023-05-19T14:40:04.236Z,9.43
2023-05-19T14:42:31.071Z,9.38
2023-05-19T14:45:04.170Z,8.63
2023-05-19T14:47:31.111Z,9.18
2023-05-19T14:49:57.852Z,9.60
2023-05-19T14:52:24.662Z,8.50
2023-05-19T14:54:51.345Z,9.30
2023-05-19T14:57:19.542Z,8.65
2023-05-19T14:59:46.430Z,9.05
2023-05-19T15:02:13.345Z,9.13
2023-05-19T15:04:40.188Z,9.15
2023-05-19T15:07:10.974Z,8.35
2023-05-19T15:09:38.238Z,8.75
2023-05-19T15:12:06.457Z,7.93
2023-05-19T15:14:35.697Z,7.07
2023-05-19T15:17:02.643Z,7.00
2023-05-19T15:19:32.262Z,8.05
2023-05-19T15:21:59.082Z,8.02
2023-05-19T15:24:26.020Z,7.60
2023-05-19T15:26:56.104Z,8.10
2023-05-19T15:29:22.770Z,8.82
2023-05-19T15:31:52.525Z,8.07
2023-05-19T15:34:20.101Z,7.88
2023-05-19T15:36:47.126Z,6.75
2023-05-19T15:39:14.041Z,7.63
2023-05-19T15:41:40.868Z,6.75
2023-05-19T15:44:10.630Z,7.65
2023-05-19T15:46:37.478Z,7.55
2023-05-19T15:49:04.639Z,6.82
2023-05-19T15:51:31.394Z,6.17
2023-05-19T15:53:58.603Z,5.88
2023-05-19T15:56:25.358Z,6.15
2023-05-19T15:58:55.052Z,6.78
2023-05-19T16:01:21.889Z,5.82
2023-05-19T16:03:51.670Z,5.10
2023-05-19T16:06:18.681Z,5.32
2023-05-19T16:08:45.395Z,4.78
2023-05-19T16:11:12.119Z,5.05
2023-05-19T16:13:38.789Z,5.40
2023-05-19T16:16:06.135Z,4.57
2023-05-19T16:18:32.925Z,4.55
2023-05-19T16:20:59.747Z,4.45
2023-05-19T16:23:26.458Z,5.18
2023-05-19T16:25:53.836Z,4.57
2023-05-19T16:28:22.563Z,4.90
2023-05-19T16:30:55.112Z,4.90
2023-05-19T16:33:21.769Z,4.90
2023-05-19T16:35:49.615Z,4.40
2023-05-19T16:38:21.831Z,4.55
2023-05-19T16:40:48.552Z,4.60
2023-05-19T16:43:15.202Z,4.55
2023-05-19T16:45:42.077Z,4.85
2023-05-19T16:48:09.757Z,4.90
2023-05-19T16:50:36.837Z,4.68
2023-05-19T16:53:03.891Z,4.63
2023-05-19T16:55:39.687Z,5.28
2023-05-19T16:58:06.447Z,5.30
2023-05-19T17:00:34.484Z,5.32
2023-05-19T17:03:01.555Z,5.43
2023-05-19T17:05:29.596Z,6.17
2023-05-19T17:07:56.272Z,6.25
2023-05-19T17:10:22.981Z,6.05
2023-05-19T17:12:53.488Z,6.05
2023-05-19T17:15:20.209Z,6.00
2023-05-19T17:17:46.889Z,6.33
2023-05-19T17:20:16.502Z,6.57
2023-05-19T17:22:45.792Z,6.53
2023-05-19T17:25:15.353Z,6.80
2023-05-19T17:27:42.095Z,5.93
2023-05-19T17:30:11.428Z,5.93
2023-05-19T17:32:38.281Z,5.78
2023-05-19T17:35:06.402Z,6.45
2023-05-19T17:37:33.389Z,6.07
2023-05-19T17:40:00.552Z,5.97
2023-05-19T17:42:27.306Z,6.00
2023-05-19T17:44:54.125Z,6.03
2023-05-19T17:47:21.001Z,6.15
2023-05-19T17:49:50.325Z,6.30
2023-05-19T17:52:27.098Z,6.32
2023-05-19T17:54:57.255Z,6.40
2023-05-19T17:57:25.953Z,6.90
2023-05-19T17:59:53.189Z,6.57
2023-05-19T18:02:20.246Z,6.03
2023-05-19T18:04:47.325Z,6.03
2023-05-19T18:07:22.132Z,5.93
2023-05-19T18:09:54.273Z,5.57
2023-05-19T18:12:24.001Z,5.57
2023-05-19T18:14:50.742Z,5.45
2023-05-19T18:17:17.606Z,5.55
2023-05-19T18:19:44.304Z,5.60
2023-05-19T18:22:13.237Z,5.50
2023-05-19T18:24:39.992Z,5.45
2023-05-19T18:27:09.756Z,6.05
2023-05-19T18:29:43.595Z,5.75
2023-05-19T18:32:10.604Z,5.97
2023-05-19T18:34:52.900Z,5.60
2023-05-19T18:37:25.516Z,5.30
2023-05-19T18:39:57.578Z,5.80
2023-05-19T18:42:24.363Z,6.20
2023-05-19T18:45:00.284Z,5.67
2023-05-19T18:47:30.075Z,5.50
2023-05-19T18:49:58.070Z,6.50
2023-05-19T18:52:24.931Z,6.43
2023-05-19T18:54:51.702Z,5.88
2023-05-19T18:57:18.543Z,6.60
2023-05-19T18:59:45.420Z,6.25
2023-05-19T19:02:12.183Z,6.85
2023-05-19T19:04:39.477Z,6.47
2023-05-19T19:07:06.148Z,7.10
2023-05-19T19:09:39.029Z,6.47
2023-05-19T19:12:05.978Z,6.40
2023-05-19T19:14:35.685Z,6.75
2023-05-19T19:17:02.397Z,6.90
2023-05-19T19:19:29.229Z,6.95
2023-05-19T19:21:57.169Z,7.70
2023-05-19T19:24:25.859Z,7.57
2023-05-19T19:26:52.603Z,7.63
2023-05-19T19:29:19.242Z,7.18
2023-05-19T19:31:46.106Z,7.68
2023-05-19T19:34:14.709Z,7.60
2023-05-19T19:36:41.444Z,7.32
2023-05-19T19:39:08.107Z,7.30
2023-05-19T19:41:34.766Z,8.38
2023-05-19T19:44:05.622Z,7.40
2023-05-19T19:46:32.542Z,7.27
2023-05-19T19:48:59.306Z,7.82
2023-05-19T19:51:27.048Z,7.03
2023-05-19T19:53:54.029Z,6.88
2023-05-19T19:56:20.834Z,7.75
2023-05-19T19:58:47.679Z,6.90
2023-05-19T20:01:14.363Z,7.15
2023-05-19T20:03:48.197Z,7.60
2023-05-19T20:06:15.122Z,7.60
2023-05-19T20:08:41.908Z,7.22
2023-05-19T20:11:08.694Z,7.07
2023-05-19T20:13:35.514Z,7.20
2023-05-19T20:16:03.352Z,6.18
2023-05-19T20:18:30.196Z,7.15
2023-05-19T20:20:57.279Z,7.30
2023-05-19T20:23:24.993Z,6.77
2023-05-19T20:26:09.986Z,6.85
2023-05-19T20:28:38.254Z,7.25
2023-05-19T20:31:05.226Z,6.75
2023-05-19T20:33:33.614Z,7.68
2023-05-19T20:36:01.958Z,6.93
2023-05-19T20:38:28.727Z,7.35
2023-05-19T20:40:55.426Z,7.03
2023-05-19T20:43:22.103Z,7.30
2023-05-19T20:45:48.906Z,7.32
2023-05-19T20:48:17.776Z,7.23
2023-05-19T20:50:48.202Z,6.90
2023-05-19T20:53:14.995Z,6.82
2023-05-19T20:55:44.608Z,6.68
2023-05-19T20:58:12.126Z,7.57
2023-05-19T21:00:38.937Z,7.73
2023-05-19T21:03:05.859Z,7.28
2023-05-19T21:05:32.793Z,7.40
2023-05-19T21:07:59.604Z,7.10
2023-05-19T21:10:26.343Z,6.85
2023-05-19T21:12:53.143Z,7.27
2023-05-19T21:15:20.023Z,7.63
2023-05-19T21:17:46.896Z,7.28
2023-05-19T21:20:13.642Z,7.35
2023-05-19T21:22:43.524Z,6.85
2023-05-19T21:25:10.298Z,6.57
2023-05-19T21:27:37.012Z,7.18
2023-05-19T21:30:03.895Z,6.55
2023-05-19T21:32:30.739Z,7.15
2023-05-19T21:35:00.527Z,7.28
2023-05-19T21:37:27.653Z,7.57
2023-05-19T21:39:54.328Z,7.78
2023-05-19T21:42:21.107Z,8.65
2023-05-19T21:44:47.804Z,8.70
2023-05-19T21:47:16.983Z,9.50
2023-05-19T21:49:44.022Z,8.67
2023-05-19T21:52:10.757Z,8.00
2023-05-19T21:54:37.480Z,8.60
2023-05-19T21:57:04.447Z,8.00
2023-05-19T21:59:31.168Z,7.75
2023-05-19T22:01:58.525Z,8.10
2023-05-19T22:04:25.296Z,7.50
2023-05-19T22:06:55.953Z,7.60
2023-05-19T22:09:22.736Z,7.20
2023-05-19T22:11:51.230Z,7.50
2023-05-19T22:14:29.999Z,7.23
2023-05-19T22:16:57.486Z,6.75
2023-05-19T22:19:24.236Z,6.57
2023-05-19T22:21:58.423Z,6.63
2023-05-19T22:24:36.095Z,6.70
2023-05-19T22:27:03.437Z,7.47
2023-05-19T22:29:30.095Z,6.55
2023-05-19T22:31:56.906Z,6.20
2023-05-19T22:34:23.695Z,6.97
2023-05-19T22:36:52.163Z,6.90
2023-05-19T22:39:28.260Z,5.97
2023-05-19T22:41:57.383Z,5.65
2023-05-19T22:44:26.188Z,5.78
2023-05-19T22:46:53.050Z,6.00
2023-05-19T22:49:22.015Z,5.72
2023-05-19T22:51:49.805Z,5.70
2023-05-19T22:54:21.407Z,6.13
2023-05-19T22:56:48.081Z,5.80
2023-05-19T22:59:23.973Z,5.97
2023-05-19T23:01:50.865Z,5.70
2023-05-19T23:04:17.622Z,6.10
2023-05-19T23:06:44.575Z,5.85
2023-05-19T23:09:13.038Z,5.60
2023-05-19T23:11:39.717Z,5.15
2023-05-19T23:14:07.332Z,5.30
2023-05-19T23:16:35.433Z,5.57
2023-05-19T23:19:02.531Z,5.93
2023-05-19T23:21:30.616Z,5.70
2023-05-19T23:23:57.469Z,5.65
2023-05-19T23:26:24.189Z,5.55
2023-05-19T23:28:53.455Z,5.47
2023-05-19T23:31:20.256Z,5.90
2023-05-19T23:33:47.020Z,5.78
2023-05-19T23:36:19.048Z,5.20
2023-05-19T23:38:48.555Z,5.80
2023-05-19T23:41:15.385Z,5.90
2023-05-19T23:43:44.855Z,5.70
2023-05-19T23:46:20.927Z,5.60
2023-05-19T23:48:49.060Z,6.00
2023-05-19T23:51:15.898Z,6.00
2023-05-19T23:53:42.838Z,5.53
2023-05-19T23:56:10.111Z,5.80
2023-05-19T23:58:37.090Z,5.72
